createdAt,value
2022-11-21T00:01:48.798Z,4.60
2022-11-21T00:04:17.503Z,4.60
2022-11-21T00:06:45.644Z,4.70
2022-11-21T00:09:14.087Z,4.60
2022-11-21T00:11:42.227Z,4.70
2022-11-21T00:14:12.235Z,4.80
2022-11-21T00:16:40.274Z,4.70
2022-11-21T00:19:08.499Z,4.70
2022-11-21T00:21:37.168Z,4.70
2022-11-21T00:24:05.584Z,4.70
2022-11-21T00:26:34.191Z,4.70
2022-11-21T00:29:02.595Z,4.70
2022-11-21T00:31:32.965Z,4.80
2022-11-21T00:34:01.023Z,4.80
2022-11-21T00:36:29.704Z,4.80
2022-11-21T00:38:57.964Z,4.90
2022-11-21T00:41:26.312Z,4.90
2022-11-21T00:43:54.470Z,4.90
2022-11-21T00:46:22.699Z,4.90
2022-11-21T00:48:52.820Z,4.90
2022-11-21T00:51:20.894Z,4.90
2022-11-21T00:53:49.360Z,5.00
2022-11-21T00:56:17.994Z,5.00
2022-11-21T00:58:46.695Z,5.00
2022-11-21T01:01:15.634Z,4.90
2022-11-21T01:03:46.175Z,4.90
2022-11-21T01:06:16.074Z,5.00
2022-11-21T01:08:45.609Z,5.00
2022-11-21T01:11:15.028Z,5.00
2022-11-21T01:13:43.655Z,5.00
2022-11-21T01:16:13.241Z,5.00
2022-11-21T01:18:41.651Z,5.00
2022-11-21T01:21:16.971Z,5.00
2022-11-21T01:23:46.510Z,5.00
2022-11-21T01:26:15.727Z,5.00
2022-11-21T01:28:44.067Z,5.00
2022-11-21T01:31:13.240Z,5.00
2022-11-21T01:33:41.563Z,5.00
2022-11-21T01:36:11.366Z,5.00
2022-11-21T01:38:40.000Z,5.00
2022-11-21T01:41:10.616Z,5.00
2022-11-21T01:43:39.111Z,5.00
2022-11-21T01:46:11.985Z,5.10
2022-11-21T01:48:41.651Z,5.10
2022-11-21T01:51:13.502Z,5.10
2022-11-21T01:53:42.902Z,5.20
2022-11-21T01:56:12.948Z,5.20
2022-11-21T01:58:42.243Z,5.20
2022-11-21T02:01:10.868Z,5.20
2022-11-21T02:03:42.581Z,5.20
2022-11-21T02:06:11.490Z,5.20
2022-11-21T02:08:41.453Z,5.20
2022-11-21T02:11:13.235Z,5.20
2022-11-21T02:13:42.063Z,5.20
2022-11-21T02:16:10.462Z,5.30
2022-11-21T02:18:39.200Z,5.30
2022-11-21T02:21:11.638Z,5.30
2022-11-21T02:23:42.350Z,5.30
2022-11-21T02:26:11.919Z,5.10
2022-11-21T02:28:40.447Z,5.20
2022-11-21T02:31:08.520Z,5.20
2022-11-21T02:33:36.841Z,5.20
2022-11-21T02:36:05.365Z,5.20
2022-11-21T02:38:34.771Z,5.10
2022-11-21T02:41:06.095Z,5.10
2022-11-21T02:43:38.716Z,5.10
2022-11-21T02:46:06.824Z,5.00
2022-11-21T02:48:37.280Z,5.10
2022-11-21T02:51:06.826Z,5.10
2022-11-21T02:53:35.610Z,5.10
2022-11-21T02:56:07.466Z,5.20
2022-11-21T02:58:37.486Z,5.20
2022-11-21T03:01:05.812Z,5.20
2022-11-21T03:03:33.905Z,5.20
2022-11-21T03:06:02.416Z,5.30
2022-11-21T03:08:30.695Z,5.20
2022-11-21T03:10:59.379Z,5.20
2022-11-21T03:13:27.443Z,5.20
2022-11-21T03:15:57.490Z,5.20
2022-11-21T03:18:25.606Z,5.20
2022-11-21T03:20:54.105Z,5.10
2022-11-21T03:23:22.166Z,5.10
2022-11-21T03:25:50.715Z,5.00
2022-11-21T03:28:18.892Z,5.00
2022-11-21T03:30:48.022Z,5.00
2022-11-21T03:33:18.004Z,5.00
2022-11-21T03:35:46.084Z,5.10
2022-11-21T03:38:14.720Z,5.10
2022-11-21T03:40:42.775Z,5.10
2022-11-21T03:43:11.403Z,5.10
2022-11-21T03:45:39.887Z,5.00
2022-11-21T03:48:08.793Z,5.00
2022-11-21T03:50:38.237Z,5.00
2022-11-21T03:53:08.668Z,5.00
2022-11-21T03:55:36.744Z,5.00
2022-11-21T03:58:05.125Z,5.00
2022-11-21T04:00:33.417Z,5.10
2022-11-21T04:03:01.619Z,5.10
2022-11-21T04:05:29.948Z,5.10
2022-11-21T04:07:59.329Z,5.10
2022-11-21T04:10:27.815Z,5.20
2022-11-21T04:12:55.887Z,5.10
2022-11-21T04:15:24.295Z,5.10
2022-11-21T04:17:53.054Z,5.20
2022-11-21T04:20:21.435Z,5.20
2022-11-21T04:22:49.555Z,5.20
2022-11-21T04:25:19.699Z,5.20
2022-11-21T04:27:47.836Z,5.20
2022-11-21T04:30:16.756Z,5.20
2022-11-21T04:32:45.133Z,5.20
2022-11-21T04:35:13.479Z,5.30
2022-11-21T04:37:42.255Z,5.20
2022-11-21T04:40:10.823Z,5.20
2022-11-21T04:42:43.688Z,5.20
2022-11-21T04:45:12.266Z,5.20
2022-11-21T04:47:41.467Z,5.20
2022-11-21T04:50:10.375Z,5.10
2022-11-21T04:52:38.764Z,5.10
2022-11-21T04:55:09.193Z,5.00
2022-11-21T04:57:37.302Z,5.00
2022-11-21T05:00:08.605Z,5.00
2022-11-21T05:02:36.649Z,5.00
2022-11-21T05:05:05.136Z,5.00
2022-11-21T05:07:33.391Z,4.90
2022-11-21T05:10:02.561Z,5.00
2022-11-21T05:12:49.319Z,4.90
2022-11-21T05:15:24.284Z,5.00
2022-11-21T05:17:53.243Z,5.00
2022-11-21T05:20:22.113Z,5.00
2022-11-21T05:22:53.731Z,5.10
2022-11-21T05:25:34.866Z,5.00
2022-11-21T05:28:03.274Z,5.00
2022-11-21T05:30:36.729Z,5.00
2022-11-21T05:33:06.254Z,4.90
2022-11-21T05:35:38.840Z,4.90
2022-11-21T05:38:10.197Z,4.90
2022-11-21T05:40:38.624Z,4.80
2022-11-21T05:43:24.891Z,4.80
2022-11-21T05:45:54.859Z,4.80
2022-11-21T05:48:23.539Z,4.80
2022-11-21T05:50:53.400Z,4.80
2022-11-21T05:53:21.889Z,4.80
2022-11-21T05:55:50.411Z,4.70
2022-11-21T05:58:18.771Z,4.80
2022-11-21T06:00:47.431Z,4.80
2022-11-21T06:03:28.227Z,4.80
2022-11-21T06:06:03.716Z,4.80
2022-11-21T06:08:33.172Z,4.80
2022-11-21T06:11:02.110Z,4.80
2022-11-21T06:13:30.570Z,4.80
2022-11-21T06:16:00.962Z,4.80
2022-11-21T06:18:32.490Z,4.80
2022-11-21T06:21:04.344Z,4.80
2022-11-21T06:23:32.959Z,4.80
2022-11-21T06:26:01.617Z,4.80
2022-11-21T06:28:31.705Z,4.80
2022-11-21T06:31:03.294Z,4.80
2022-11-21T06:33:32.942Z,4.80
2022-11-21T06:36:02.479Z,4.80
2022-11-21T06:38:30.834Z,4.90
2022-11-21T06:40:59.211Z,4.90
2022-11-21T06:43:28.082Z,4.90
2022-11-21T06:45:57.094Z,4.90
2022-11-21T06:48:25.308Z,4.90
2022-11-21T06:50:55.181Z,4.90
2022-11-21T06:53:23.247Z,4.90
2022-11-21T06:55:51.993Z,4.90
2022-11-21T06:58:20.028Z,4.90
2022-11-21T07:00:49.066Z,4.90
2022-11-21T07:03:18.501Z,4.90
2022-11-21T07:05:46.616Z,4.90
2022-11-21T07:08:17.360Z,5.00
2022-11-21T07:11:23.497Z,5.00
2022-11-21T07:13:46.234Z,5.00
2022-11-21T07:16:15.254Z,5.00
2022-11-21T07:18:44.682Z,5.00
2022-11-21T07:21:12.795Z,4.90
2022-11-21T07:23:42.658Z,4.90
2022-11-21T07:26:11.432Z,5.00
2022-11-21T07:28:40.215Z,5.00
2022-11-21T07:31:13.582Z,5.00
2022-11-21T07:33:44.440Z,4.90
2022-11-21T07:36:12.744Z,4.80
2022-11-21T07:38:42.468Z,4.80
2022-11-21T07:41:10.979Z,4.80
2022-11-21T07:43:39.064Z,4.90
2022-11-21T07:46:07.434Z,4.80
2022-11-21T07:48:35.776Z,4.70
2022-11-21T07:51:04.698Z,4.80
2022-11-21T07:53:32.836Z,4.80
2022-11-21T07:56:02.365Z,4.80
2022-11-21T07:58:30.528Z,4.80
2022-11-21T08:00:58.935Z,4.80
2022-11-21T08:03:27.064Z,4.90
2022-11-21T08:05:55.270Z,4.90
2022-11-21T08:08:23.685Z,4.90
2022-11-21T08:10:51.703Z,5.00
2022-11-21T08:13:21.597Z,4.90
2022-11-21T08:15:49.764Z,5.00
2022-11-21T08:18:19.295Z,5.00
2022-11-21T08:20:47.381Z,5.10
2022-11-21T08:23:16.008Z,5.10
2022-11-21T08:25:45.181Z,5.10
2022-11-21T08:28:14.199Z,5.20
2022-11-21T08:30:44.810Z,5.20
2022-11-21T08:33:13.934Z,5.20
2022-11-21T08:35:42.216Z,5.30
2022-11-21T08:38:10.628Z,5.20
2022-11-21T08:40:39.352Z,5.30
2022-11-21T08:43:08.065Z,5.30
2022-11-21T08:45:36.941Z,5.30
2022-11-21T08:48:09.935Z,5.40
2022-11-21T08:50:38.700Z,5.50
2022-11-21T08:53:06.799Z,5.50
2022-11-21T08:55:34.861Z,5.50
2022-11-21T08:58:02.923Z,5.50
2022-11-21T09:00:31.048Z,5.50
2022-11-21T09:02:59.587Z,5.60
2022-11-21T09:05:29.016Z,5.70
2022-11-21T09:07:57.602Z,5.80
2022-11-21T09:10:25.807Z,5.90
2022-11-21T09:12:54.136Z,5.80
2022-11-21T09:15:39.808Z,5.80
2022-11-21T09:18:08.664Z,5.80
2022-11-21T09:20:41.100Z,5.90
2022-11-21T09:23:10.327Z,5.90
2022-11-21T09:25:38.393Z,6.00
2022-11-21T09:28:07.695Z,6.10
2022-11-21T09:30:36.122Z,6.10
2022-11-21T09:33:05.475Z,6.20
2022-11-21T09:35:33.992Z,6.20
2022-11-21T09:38:03.729Z,6.30
2022-11-21T09:40:32.573Z,6.40
2022-11-21T09:43:15.992Z,6.50
2022-11-21T09:45:47.676Z,6.50
2022-11-21T09:48:18.566Z,6.60
2022-11-21T09:50:53.765Z,6.80
2022-11-21T09:53:25.315Z,6.80
2022-11-21T09:55:55.510Z,7.00
2022-11-21T09:58:27.571Z,7.10
2022-11-21T10:00:56.133Z,7.30
2022-11-21T10:03:26.972Z,7.40
2022-11-21T10:05:57.123Z,7.60
2022-11-21T10:08:31.192Z,7.80
2022-11-21T10:11:07.407Z,7.80
2022-11-21T10:13:55.499Z,8.00
2022-11-21T10:16:29.150Z,8.30
2022-11-21T10:19:08.678Z,8.70
2022-11-21T10:21:47.769Z,8.80
2022-11-21T10:24:25.489Z,8.90
2022-11-21T10:26:56.136Z,9.30
2022-11-21T10:29:27.434Z,9.30
2022-11-21T10:31:57.025Z,9.30
2022-11-21T10:34:26.580Z,9.50
2022-11-21T10:36:57.658Z,9.80
2022-11-21T10:39:33.319Z,10.60
2022-11-21T10:42:05.251Z,10.90
2022-11-21T10:44:51.572Z,11.00
2022-11-21T10:47:27.842Z,10.50
2022-11-21T10:50:01.629Z,9.90
2022-11-21T10:52:33.601Z,9.70
2022-11-21T10:55:11.174Z,9.40
2022-11-21T10:57:44.418Z,9.20
2022-11-21T11:00:17.709Z,9.00
2022-11-21T11:03:02.333Z,8.80
2022-11-21T11:05:30.852Z,8.60
2022-11-21T11:08:04.357Z,8.40
2022-11-21T11:10:34.880Z,8.50
2022-11-21T11:13:45.260Z,8.60
2022-11-21T11:16:17.433Z,8.50
2022-11-21T11:18:48.190Z,8.50
2022-11-21T11:21:18.326Z,8.40
2022-11-21T11:23:47.659Z,8.30
2022-11-21T11:26:24.876Z,8.30
2022-11-21T11:28:53.299Z,8.20
2022-11-21T11:31:21.406Z,8.10
2022-11-21T11:33:54.293Z,8.40
2022-11-21T11:36:34.855Z,9.20
2022-11-21T11:39:06.371Z,9.80
2022-11-21T11:42:06.095Z,9.90
2022-11-21T11:44:58.506Z,9.70
2022-11-21T11:47:32.728Z,9.80
2022-11-21T11:50:15.647Z,9.50
2022-11-21T11:52:50.204Z,9.20
2022-11-21T11:55:21.453Z,9.00
2022-11-21T11:57:53.108Z,8.80
2022-11-21T12:00:36.635Z,8.80
2022-11-21T12:03:10.092Z,8.80
2022-11-21T12:05:40.873Z,8.70
2022-11-21T12:11:28.967Z,8.60
2022-11-21T12:14:02.274Z,8.60
2022-11-21T12:16:30.928Z,9.00
2022-11-21T12:19:01.638Z,9.60
2022-11-21T12:21:30.214Z,10.10
2022-11-21T12:23:58.835Z,10.60
2022-11-21T12:26:42.686Z,11.00
2022-11-21T12:29:24.216Z,11.10
2022-11-21T12:32:05.938Z,10.80
2022-11-21T12:34:39.029Z,10.50
2022-11-21T12:37:19.456Z,10.10
2022-11-21T12:39:57.083Z,9.90
2022-11-21T12:42:47.236Z,9.70
2022-11-21T12:45:32.017Z,9.60
2022-11-21T12:48:29.092Z,9.50
2022-11-21T12:51:21.127Z,9.30
2022-11-21T12:54:12.212Z,9.20
2022-11-21T12:56:46.116Z,9.10
2022-11-21T12:59:18.609Z,9.00
2022-11-21T13:01:52.690Z,9.00
2022-11-21T13:04:23.223Z,9.00
2022-11-21T13:06:52.513Z,8.90
2022-11-21T13:09:23.319Z,8.90
2022-11-21T13:12:00.663Z,8.80
2022-11-21T13:14:38.667Z,8.80
2022-11-21T13:17:20.661Z,8.80
2022-11-21T13:19:53.023Z,8.90
2022-11-21T13:22:39.791Z,9.10
2022-11-21T13:25:11.000Z,9.10
2022-11-21T13:27:39.862Z,9.10
2022-11-21T13:30:18.651Z,9.10
2022-11-21T13:32:49.810Z,9.00
2022-11-21T13:35:51.784Z,9.00
2022-11-21T13:38:19.893Z,8.90
2022-11-21T13:41:02.404Z,8.80
2022-11-21T13:43:33.831Z,8.80
2022-11-21T13:46:03.278Z,8.80
2022-11-21T13:48:55.412Z,8.70
2022-11-21T13:51:32.972Z,8.70
2022-11-21T13:54:17.804Z,8.70
2022-11-21T13:56:56.312Z,8.80
2022-11-21T13:59:33.243Z,8.90
2022-11-21T14:02:20.989Z,9.20
2022-11-21T14:04:57.521Z,9.40
2022-11-21T14:07:29.198Z,9.60
2022-11-21T14:09:58.662Z,9.70
2022-11-21T14:12:33.282Z,9.80
2022-11-21T14:15:14.279Z,9.90
2022-11-21T14:17:44.938Z,10.00
2022-11-21T14:20:18.143Z,10.10
2022-11-21T14:22:54.183Z,10.20
2022-11-21T14:25:26.800Z,10.30
2022-11-21T14:27:56.812Z,10.30
2022-11-21T14:30:35.332Z,10.40
2022-11-21T14:33:23.374Z,10.30
2022-11-21T14:35:53.514Z,10.30
2022-11-21T14:38:24.065Z,10.40
2022-11-21T14:41:12.109Z,10.50
2022-11-21T14:43:40.556Z,10.40
2022-11-21T14:46:13.824Z,10.10
2022-11-21T14:48:42.708Z,9.80
2022-11-21T14:51:13.045Z,9.60
2022-11-21T14:53:43.747Z,9.10
2022-11-21T14:56:13.525Z,8.80
2022-11-21T14:58:42.076Z,8.80
2022-11-21T15:01:21.579Z,9.10
2022-11-21T15:03:57.811Z,8.90
2022-11-21T15:06:29.915Z,8.50
2022-11-21T15:10:25.439Z,8.20
2022-11-21T15:11:50.148Z,8.20
2022-11-21T15:14:29.735Z,8.20
2022-11-21T15:16:59.572Z,8.30
2022-11-21T15:19:29.394Z,8.30
2022-11-21T15:21:59.495Z,8.30
2022-11-21T15:24:40.125Z,8.30
2022-11-21T15:27:27.572Z,8.00
2022-11-21T15:30:01.999Z,8.00
2022-11-21T15:32:32.008Z,8.00
2022-11-21T15:35:00.137Z,8.10
2022-11-21T15:37:28.273Z,8.10
2022-11-21T15:39:59.171Z,8.20
2022-11-21T15:42:37.687Z,8.20
2022-11-21T15:45:21.591Z,8.10
2022-11-21T15:47:50.093Z,8.20
2022-11-21T15:50:18.583Z,8.20
2022-11-21T15:52:48.428Z,8.20
2022-11-21T15:55:23.499Z,8.20
2022-11-21T15:57:52.216Z,8.10
2022-11-21T16:00:20.935Z,8.10
2022-11-21T16:02:49.696Z,8.00
2022-11-21T16:05:17.846Z,8.00
2022-11-21T16:07:46.012Z,7.90
2022-11-21T16:10:21.416Z,7.70
2022-11-21T16:12:55.741Z,7.70
2022-11-21T16:15:24.300Z,7.70
2022-11-21T16:17:52.555Z,7.70
2022-11-21T16:20:21.169Z,7.70
2022-11-21T16:22:50.050Z,7.70
2022-11-21T16:25:18.618Z,7.70
2022-11-21T16:27:47.173Z,7.70
2022-11-21T16:30:17.112Z,7.50
2022-11-21T16:32:46.936Z,7.40
2022-11-21T16:35:15.562Z,7.30
2022-11-21T16:37:44.196Z,7.10
2022-11-21T16:40:12.589Z,7.00
2022-11-21T16:42:41.281Z,7.00
2022-11-21T16:45:10.185Z,6.90
2022-11-21T16:47:45.764Z,6.80
2022-11-21T16:50:16.597Z,6.70
2022-11-21T16:52:45.147Z,6.60
2022-11-21T16:55:13.381Z,6.40
2022-11-21T16:57:43.339Z,6.30
2022-11-21T17:00:12.131Z,6.20
2022-11-21T17:02:43.474Z,6.10
2022-11-21T17:05:11.566Z,6.10
2022-11-21T17:07:40.563Z,6.00
2022-11-21T17:10:10.046Z,6.10
2022-11-21T17:12:38.905Z,6.10
2022-11-21T17:15:09.513Z,6.20
2022-11-21T17:17:38.178Z,6.20
2022-11-21T17:20:10.145Z,6.10
2022-11-21T17:22:39.241Z,6.10
2022-11-21T17:25:08.286Z,6.00
2022-11-21T17:27:36.389Z,6.10
2022-11-21T17:30:05.601Z,6.10
2022-11-21T17:32:35.361Z,6.10
2022-11-21T17:35:03.501Z,6.20
2022-11-21T17:37:33.234Z,6.20
2022-11-21T17:40:01.401Z,6.20
2022-11-21T17:42:31.512Z,6.10
2022-11-21T17:44:59.651Z,6.10
2022-11-21T17:47:27.964Z,6.20
2022-11-21T17:49:59.940Z,6.20
2022-11-21T17:52:33.043Z,6.00
2022-11-21T17:55:01.813Z,6.00
2022-11-21T17:57:31.239Z,5.90
2022-11-21T17:59:59.770Z,5.80
2022-11-21T18:02:28.155Z,5.90
2022-11-21T18:04:56.623Z,5.90
2022-11-21T18:07:24.756Z,6.00
2022-11-21T18:09:54.577Z,6.00
2022-11-21T18:12:22.897Z,6.00
2022-11-21T18:14:51.217Z,6.00
2022-11-21T18:17:19.304Z,6.00
2022-11-21T18:19:47.803Z,6.00
2022-11-21T18:22:46.210Z,6.10
2022-11-21T18:25:22.700Z,6.10
2022-11-21T18:27:54.604Z,6.10
2022-11-21T18:30:23.778Z,6.00
2022-11-21T18:32:51.859Z,6.00
2022-11-21T18:35:20.579Z,6.00
2022-11-21T18:37:49.049Z,6.00
2022-11-21T18:40:45.087Z,5.90
2022-11-21T18:43:17.127Z,5.80
2022-11-21T18:45:45.439Z,5.70
2022-11-21T18:48:14.395Z,5.70
2022-11-21T18:50:42.529Z,5.70
2022-11-21T18:53:11.083Z,5.80
2022-11-21T18:55:39.439Z,5.70
2022-11-21T18:58:07.720Z,5.60
2022-11-21T19:00:37.455Z,5.50
2022-11-21T19:03:05.722Z,5.40
2022-11-21T19:05:34.040Z,5.40
2022-11-21T19:08:02.156Z,5.30
2022-11-21T19:10:43.112Z,5.30
2022-11-21T19:13:12.068Z,5.20
2022-11-21T19:15:42.855Z,5.10
2022-11-21T19:18:11.790Z,5.10
2022-11-21T19:20:40.927Z,5.10
2022-11-21T19:23:09.982Z,5.10
2022-11-21T19:25:38.376Z,5.10
2022-11-21T19:28:09.411Z,5.10
2022-11-21T19:30:37.531Z,5.20
2022-11-21T19:33:07.424Z,5.00
2022-11-21T19:35:37.623Z,5.00
2022-11-21T19:38:06.843Z,5.00
2022-11-21T19:40:55.856Z,5.00
2022-11-21T19:43:24.033Z,5.00
2022-11-21T19:45:58.193Z,4.80
2022-11-21T19:48:29.168Z,4.70
2022-11-21T19:50:58.720Z,4.80
2022-11-21T19:53:27.329Z,4.80
2022-11-21T19:55:56.854Z,5.00
2022-11-21T19:58:27.162Z,5.20
2022-11-21T20:00:55.535Z,5.20
2022-11-21T20:03:25.527Z,5.30
2022-11-21T20:06:01.528Z,5.20
2022-11-21T20:08:29.999Z,5.20
2022-11-21T20:11:04.748Z,5.10
2022-11-21T20:13:35.812Z,5.00
2022-11-21T20:16:04.418Z,5.00
2022-11-21T20:18:32.973Z,5.00
2022-11-21T20:21:09.592Z,5.10
2022-11-21T20:23:38.162Z,5.00
2022-11-21T20:26:06.684Z,5.00
2022-11-21T20:28:35.454Z,5.00
2022-11-21T20:31:04.679Z,4.90
2022-11-21T20:33:36.797Z,4.90
2022-11-21T20:36:06.255Z,4.90
2022-11-21T20:38:36.856Z,4.90
2022-11-21T20:41:05.229Z,5.00
2022-11-21T20:44:14.485Z,5.10
2022-11-21T20:46:22.343Z,5.00
2022-11-21T20:48:50.504Z,4.90
2022-11-21T20:54:13.410Z,5.00
2022-11-21T20:56:44.324Z,5.10
2022-11-21T20:59:13.767Z,4.90
2022-11-21T21:01:42.064Z,4.70
2022-11-21T21:04:11.457Z,4.70
2022-11-21T21:06:40.208Z,4.60
2022-11-21T21:09:14.855Z,4.60
2022-11-21T21:11:52.450Z,4.80
2022-11-21T21:14:21.522Z,4.90
2022-11-21T21:16:49.849Z,5.00
2022-11-21T21:19:18.214Z,5.00
2022-11-21T21:21:46.805Z,4.90
2022-11-21T21:24:17.178Z,4.90
2022-11-21T21:26:46.529Z,4.90
2022-11-21T21:29:16.830Z,4.80
2022-11-21T21:31:50.435Z,4.80
2022-11-21T21:34:20.415Z,4.90
2022-11-21T21:36:48.776Z,5.00
2022-11-21T21:39:18.189Z,5.10
2022-11-21T21:41:47.698Z,5.20
2022-11-21T21:44:16.948Z,5.20
2022-11-21T21:46:45.458Z,5.30
2022-11-21T21:49:13.844Z,5.40
2022-11-21T21:51:41.892Z,5.40
2022-11-21T21:54:17.688Z,5.50
2022-11-21T21:56:47.174Z,5.60
2022-11-21T21:59:15.630Z,5.70
2022-11-21T22:01:43.937Z,5.70
2022-11-21T22:04:12.950Z,5.80
2022-11-21T22:06:41.848Z,5.90
2022-11-21T22:09:09.963Z,5.90
2022-11-21T22:11:39.227Z,6.00
2022-11-21T22:14:11.682Z,5.90
2022-11-21T22:16:39.875Z,6.00
2022-11-21T22:19:08.573Z,6.00
2022-11-21T22:21:37.170Z,6.00
2022-11-21T22:26:54.954Z,6.00
2022-11-21T22:29:24.805Z,5.80
2022-11-21T22:31:53.560Z,5.50
2022-11-21T22:34:23.220Z,5.40
2022-11-21T22:36:52.012Z,5.40
2022-11-21T22:39:21.205Z,5.40
2022-11-21T22:41:49.423Z,5.40
2022-11-21T22:44:19.415Z,5.50
2022-11-21T22:46:48.984Z,5.50
2022-11-21T22:49:17.463Z,5.40
2022-11-21T22:51:46.104Z,5.30
2022-11-21T22:54:14.170Z,5.10
2022-11-21T22:56:42.807Z,5.00
2022-11-21T22:59:13.078Z,4.90
2022-11-21T23:01:41.699Z,4.70
2022-11-21T23:04:16.291Z,4.60
2022-11-21T23:06:46.467Z,4.40
2022-11-21T23:09:14.619Z,4.30
2022-11-21T23:11:42.753Z,4.40
2022-11-21T23:14:11.414Z,4.50
2022-11-21T23:16:39.526Z,4.50
2022-11-21T23:19:07.927Z,4.40
2022-11-21T23:21:37.391Z,4.40
2022-11-21T23:24:05.823Z,4.50
2022-11-21T23:26:33.977Z,4.60
2022-11-21T23:29:08.017Z,4.70
2022-11-21T23:31:37.250Z,4.80
